createdAt,value
2022-10-28T00:01:10.363Z,7.52
2022-10-28T00:04:16.127Z,7.47
2022-10-28T00:07:21.912Z,7.50
2022-10-28T00:10:30.375Z,7.50
2022-10-28T00:13:36.589Z,7.51
2022-10-28T00:16:46.956Z,7.50
2022-10-28T00:19:52.751Z,7.50
2022-10-28T00:22:58.381Z,7.41
2022-10-28T00:26:22.091Z,7.36
2022-10-28T00:29:28.530Z,7.33
2022-10-28T00:32:35.520Z,7.30
2022-10-28T00:35:41.207Z,7.22
2022-10-28T00:38:49.328Z,7.15
2022-10-28T00:42:03.806Z,7.14
2022-10-28T00:45:16.550Z,7.15
2022-10-28T00:48:22.249Z,7.10
2022-10-28T00:51:35.353Z,7.11
2022-10-28T00:54:48.994Z,7.08
2022-10-28T00:58:04.884Z,7.04
2022-10-28T01:01:10.722Z,6.95
2022-10-28T01:04:19.275Z,6.91
2022-10-28T01:07:26.492Z,6.82
2022-10-28T01:11:08.832Z,6.71
2022-10-28T01:14:49.558Z,6.75
2022-10-28T01:18:15.998Z,6.64
2022-10-28T01:22:06.411Z,6.71
2022-10-28T01:26:00.513Z,6.84
2022-10-28T01:29:58.776Z,6.91
2022-10-28T01:33:25.356Z,6.79
2022-10-28T01:36:50.699Z,6.84
2022-10-28T01:40:11.198Z,6.96
2022-10-28T01:43:29.742Z,6.89
2022-10-28T01:46:48.545Z,6.90
2022-10-28T01:50:11.758Z,7.02
2022-10-28T01:53:27.150Z,6.84
2022-10-28T01:56:46.470Z,6.59
2022-10-28T01:59:53.812Z,6.59
2022-10-28T02:02:59.686Z,6.61
2022-10-28T02:06:18.839Z,6.37
2022-10-28T02:09:54.865Z,6.17
2022-10-28T02:13:14.648Z,6.37
2022-10-28T02:16:34.706Z,6.31
2022-10-28T02:19:56.903Z,6.58
2022-10-28T02:23:23.590Z,6.78
2022-10-28T02:26:39.897Z,6.94
2022-10-28T02:29:57.452Z,6.99
2022-10-28T02:33:09.592Z,6.98
2022-10-28T02:36:20.268Z,6.97
2022-10-28T02:39:36.884Z,6.97
2022-10-28T02:42:51.985Z,6.76
2022-10-28T02:46:05.372Z,6.30
2022-10-28T02:49:16.738Z,5.96
2022-10-28T02:52:29.176Z,5.71
2022-10-28T02:55:46.422Z,5.77
2022-10-28T02:58:52.608Z,5.65
2022-10-28T03:01:58.541Z,5.67
2022-10-28T03:05:04.268Z,5.49
2022-10-28T03:08:10.179Z,5.34
2022-10-28T03:11:20.759Z,5.36
2022-10-28T03:14:26.510Z,5.30
2022-10-28T03:17:32.254Z,5.46
2022-10-28T03:20:40.398Z,5.58
2022-10-28T03:23:45.992Z,5.65
2022-10-28T03:26:55.904Z,5.77
2022-10-28T03:30:01.466Z,5.69
2022-10-28T03:33:13.480Z,5.75
2022-10-28T03:36:19.074Z,5.73
2022-10-28T03:39:24.732Z,5.59
2022-10-28T03:42:40.412Z,5.29
2022-10-28T03:45:48.989Z,4.91
2022-10-28T03:48:56.223Z,4.75
2022-10-28T03:52:01.832Z,4.46
2022-10-28T03:55:08.638Z,4.33
2022-10-28T03:58:25.286Z,4.56
2022-10-28T04:01:30.931Z,5.05
2022-10-28T04:04:36.580Z,5.54
2022-10-28T04:07:42.159Z,5.99
2022-10-28T04:10:49.538Z,6.31
2022-10-28T04:13:57.738Z,6.58
2022-10-28T04:17:03.286Z,6.85
2022-10-28T04:20:11.240Z,7.11
2022-10-28T04:23:26.744Z,7.44
2022-10-28T04:26:36.737Z,7.66
2022-10-28T04:29:44.882Z,7.82
2022-10-28T04:32:50.596Z,7.90
2022-10-28T04:35:56.125Z,8.01
2022-10-28T04:39:01.834Z,8.24
2022-10-28T04:42:07.654Z,8.47
2022-10-28T04:45:16.129Z,8.57
2022-10-28T04:48:21.674Z,8.72
2022-10-28T04:51:28.835Z,8.80
2022-10-28T04:54:34.444Z,8.83
2022-10-28T04:57:39.965Z,8.85
2022-10-28T05:00:48.551Z,8.85
2022-10-28T05:03:54.126Z,8.72
2022-10-28T05:06:59.761Z,8.74
2022-10-28T05:10:05.422Z,8.75
2022-10-28T05:13:11.189Z,8.59
2022-10-28T05:16:20.424Z,8.50
2022-10-28T05:19:26.051Z,8.48
2022-10-28T05:22:31.697Z,8.49
2022-10-28T05:25:37.570Z,8.45
2022-10-28T05:28:43.621Z,8.45
2022-10-28T05:31:58.639Z,8.42
2022-10-28T05:35:04.502Z,8.37
2022-10-28T05:38:10.680Z,8.41
2022-10-28T05:41:16.505Z,8.37
2022-10-28T05:44:22.191Z,8.41
2022-10-28T05:47:30.862Z,8.54
2022-10-28T05:50:37.620Z,8.49
2022-10-28T05:53:44.678Z,8.46
2022-10-28T05:56:50.427Z,8.56
2022-10-28T05:59:56.208Z,8.65
2022-10-28T06:03:10.909Z,8.84
2022-10-28T06:06:16.556Z,8.81
2022-10-28T06:09:24.376Z,8.82
2022-10-28T06:12:28.753Z,8.87
2022-10-28T06:15:34.450Z,8.75
2022-10-28T06:18:42.680Z,8.95
2022-10-28T06:21:48.374Z,8.99
2022-10-28T06:24:54.500Z,9.07
2022-10-28T06:28:05.830Z,9.26
2022-10-28T06:31:15.410Z,9.15
2022-10-28T06:34:23.665Z,9.07
2022-10-28T06:37:29.408Z,9.21
2022-10-28T06:40:35.321Z,9.31
2022-10-28T06:43:41.154Z,9.38
2022-10-28T06:46:48.391Z,9.60
2022-10-28T06:49:57.134Z,9.82
2022-10-28T06:53:02.949Z,9.98
2022-10-28T06:56:10.207Z,10.30
2022-10-28T06:59:16.088Z,10.45
2022-10-28T07:02:21.944Z,10.78
2022-10-28T07:05:31.930Z,10.63
2022-10-28T07:08:37.830Z,10.70
2022-10-28T07:11:43.886Z,10.99
2022-10-28T07:14:49.767Z,11.51
2022-10-28T07:17:56.797Z,12.10
2022-10-28T07:21:05.729Z,12.42
2022-10-28T07:24:12.460Z,12.67
2022-10-28T07:27:18.385Z,12.71
2022-10-28T07:30:24.337Z,12.68
2022-10-28T07:33:30.243Z,12.75
2022-10-28T07:36:38.969Z,12.60
2022-10-28T07:39:45.393Z,12.91
2022-10-28T07:42:55.069Z,13.20
2022-10-28T07:46:01.934Z,13.05
2022-10-28T07:49:07.950Z,13.49
2022-10-28T07:52:16.472Z,13.44
2022-10-28T07:55:22.932Z,13.58
2022-10-28T07:58:29.205Z,13.86
2022-10-28T08:01:35.051Z,13.88
2022-10-28T08:04:41.114Z,14.08
2022-10-28T08:07:49.885Z,14.17
2022-10-28T08:10:55.699Z,14.26
2022-10-28T08:14:01.699Z,14.04
2022-10-28T08:17:07.570Z,13.82
2022-10-28T08:20:14.229Z,13.41
2022-10-28T08:23:22.695Z,13.74
2022-10-28T08:26:28.588Z,14.19
2022-10-28T08:29:37.491Z,14.46
2022-10-28T08:32:46.332Z,15.27
2022-10-28T08:35:55.183Z,15.17
2022-10-28T08:39:04.073Z,14.55
2022-10-28T08:42:37.000Z,14.43
2022-10-28T08:45:59.564Z,14.59
2022-10-28T08:49:11.779Z,14.62
2022-10-28T08:52:36.421Z,15.13
2022-10-28T08:55:51.652Z,15.43
2022-10-28T08:59:03.767Z,15.76
2022-10-28T09:02:25.403Z,16.56
2022-10-28T09:05:31.874Z,15.88
2022-10-28T09:08:44.248Z,16.28
2022-10-28T09:12:18.656Z,17.06
2022-10-28T09:15:42.313Z,17.65
2022-10-28T09:18:57.289Z,16.79
2022-10-28T09:22:25.947Z,16.53
2022-10-28T09:26:15.399Z,16.56
2022-10-28T09:30:03.800Z,16.75
2022-10-28T09:34:02.081Z,16.14
2022-10-28T09:37:34.506Z,17.10
2022-10-28T09:41:09.287Z,17.40
2022-10-28T09:44:52.615Z,18.00
2022-10-28T09:48:31.273Z,18.82
2022-10-28T09:52:15.305Z,18.95
2022-10-28T09:55:48.135Z,19.70
2022-10-28T09:59:19.430Z,19.73
2022-10-28T10:02:48.864Z,20.73
2022-10-28T10:06:32.993Z,20.46
2022-10-28T10:10:06.410Z,20.92
2022-10-28T10:13:47.380Z,20.26
2022-10-28T10:17:21.826Z,20.27
2022-10-28T10:20:57.695Z,21.26
2022-10-28T10:24:35.059Z,21.09
2022-10-28T10:28:07.808Z,20.99
2022-10-28T10:31:34.078Z,21.22
2022-10-28T10:34:40.371Z,20.52
2022-10-28T10:38:05.767Z,20.88
2022-10-28T10:41:38.388Z,20.90
2022-10-28T10:45:11.806Z,20.61
2022-10-28T10:48:18.995Z,20.96
2022-10-28T10:51:30.249Z,20.60
2022-10-28T10:54:41.653Z,20.71
2022-10-28T10:57:52.154Z,20.66
2022-10-28T11:01:05.024Z,20.22
2022-10-28T11:04:19.630Z,20.83
2022-10-28T11:07:28.476Z,19.92
2022-10-28T11:10:38.148Z,19.87
2022-10-28T11:13:46.322Z,19.51
2022-10-28T11:16:55.020Z,19.79
2022-10-28T11:20:21.031Z,20.08
2022-10-28T11:23:52.605Z,19.94
2022-10-28T11:27:16.639Z,20.31
2022-10-28T11:30:33.785Z,20.11
2022-10-28T11:34:02.259Z,20.26
2022-10-28T11:37:22.591Z,20.75
2022-10-28T11:40:47.081Z,19.84
2022-10-28T11:44:05.004Z,19.30
2022-10-28T11:47:41.350Z,19.28
2022-10-28T11:51:16.907Z,19.78
2022-10-28T11:54:52.685Z,19.67
2022-10-28T11:58:19.136Z,20.09
2022-10-28T12:01:47.850Z,20.22
2022-10-28T12:05:07.648Z,19.68
2022-10-28T12:08:39.646Z,18.78
2022-10-28T12:12:15.508Z,18.47
2022-10-28T12:15:39.909Z,18.31
2022-10-28T12:19:00.994Z,18.15
2022-10-28T12:22:19.601Z,18.14
2022-10-28T12:25:48.966Z,18.12
2022-10-28T12:29:14.638Z,18.22
2022-10-28T12:32:31.722Z,18.36
2022-10-28T12:35:51.381Z,19.00
2022-10-28T12:39:12.559Z,19.30
2022-10-28T12:42:27.649Z,19.43
2022-10-28T12:45:36.095Z,18.70
2022-10-28T12:48:52.986Z,19.19
2022-10-28T12:52:17.670Z,19.34
2022-10-28T12:55:37.994Z,19.09
2022-10-28T12:59:00.629Z,19.34
2022-10-28T13:02:20.049Z,19.80
2022-10-28T13:05:36.239Z,19.06
2022-10-28T13:09:26.288Z,18.54
2022-10-28T13:13:09.290Z,18.12
2022-10-28T13:16:56.760Z,17.36
2022-10-28T13:20:31.132Z,16.82
2022-10-28T13:23:51.959Z,16.67
2022-10-28T13:27:06.566Z,16.58
2022-10-28T13:30:23.029Z,16.30
2022-10-28T13:33:32.113Z,16.17
2022-10-28T13:36:45.063Z,16.03
2022-10-28T13:39:51.311Z,15.87
2022-10-28T13:43:18.995Z,15.84
2022-10-28T13:47:18.530Z,16.08
2022-10-28T13:50:37.644Z,15.79
2022-10-28T13:53:59.451Z,15.85
2022-10-28T13:57:16.874Z,15.93
2022-10-28T14:00:40.990Z,15.85
2022-10-28T14:03:55.689Z,15.82
2022-10-28T14:07:22.614Z,15.93
2022-10-28T14:10:32.311Z,15.85
2022-10-28T14:13:51.430Z,15.89
2022-10-28T14:16:59.867Z,15.74
2022-10-28T14:20:22.501Z,15.51
2022-10-28T14:24:18.433Z,15.59
2022-10-28T14:27:31.324Z,15.64
2022-10-28T14:30:39.104Z,15.78
2022-10-28T14:34:41.596Z,15.63
2022-10-28T14:38:36.640Z,15.43
2022-10-28T14:42:19.154Z,15.02
2022-10-28T14:45:43.500Z,14.89
2022-10-28T14:48:56.415Z,14.75
2022-10-28T14:52:13.563Z,14.38
2022-10-28T14:55:30.735Z,14.21
2022-10-28T14:58:43.797Z,14.17
2022-10-28T15:02:06.622Z,13.56
2022-10-28T15:05:24.948Z,13.22
2022-10-28T15:08:32.401Z,13.11
2022-10-28T15:11:38.221Z,12.99
2022-10-28T15:14:50.950Z,12.97
2022-10-28T15:17:57.910Z,13.07
2022-10-28T15:21:23.421Z,12.98
2022-10-28T15:24:29.127Z,12.96
2022-10-28T15:27:38.450Z,13.05
2022-10-28T15:30:47.109Z,12.95
2022-10-28T15:33:52.798Z,12.97
2022-10-28T15:37:02.451Z,13.03
2022-10-28T15:40:24.882Z,12.97
2022-10-28T15:43:33.793Z,12.85
2022-10-28T15:46:39.910Z,12.83
2022-10-28T15:49:46.814Z,12.75
2022-10-28T15:52:57.678Z,12.65
2022-10-28T15:56:21.730Z,12.55
2022-10-28T15:59:29.848Z,12.38
2022-10-28T16:02:46.193Z,12.27
2022-10-28T16:05:52.430Z,12.12
2022-10-28T16:09:20.624Z,12.05
2022-10-28T16:12:29.405Z,11.93
2022-10-28T16:15:36.069Z,11.92
2022-10-28T16:18:49.256Z,11.84
2022-10-28T16:21:55.146Z,11.68
2022-10-28T16:25:03.394Z,11.72
2022-10-28T16:28:18.439Z,11.62
2022-10-28T16:31:30.940Z,11.60
2022-10-28T16:34:36.683Z,11.49
2022-10-28T16:37:46.617Z,11.30
2022-10-28T16:40:58.104Z,11.43
2022-10-28T16:44:05.162Z,11.33
2022-10-28T16:47:15.712Z,11.25
2022-10-28T16:50:21.525Z,11.04
2022-10-28T16:53:27.320Z,11.15
2022-10-28T16:56:35.587Z,10.90
2022-10-28T16:59:41.316Z,10.89
2022-10-28T17:02:50.848Z,10.98
2022-10-28T17:05:56.609Z,11.04
2022-10-28T17:09:03.503Z,10.99
2022-10-28T17:12:18.225Z,10.90
2022-10-28T17:15:24.344Z,10.91
2022-10-28T17:18:30.016Z,10.92
2022-10-28T17:21:35.778Z,10.74
2022-10-28T17:24:42.327Z,10.69
2022-10-28T17:27:50.987Z,10.74
2022-10-28T17:30:57.280Z,10.73
2022-10-28T17:34:03.146Z,10.68
2022-10-28T17:37:10.613Z,10.53
2022-10-28T17:40:17.567Z,10.52
2022-10-28T17:43:27.163Z,10.54
2022-10-28T17:46:33.045Z,10.60
2022-10-28T17:49:38.961Z,10.55
2022-10-28T17:52:44.682Z,10.59
2022-10-28T17:55:59.342Z,10.74
2022-10-28T17:59:07.877Z,10.76
2022-10-28T18:02:15.379Z,10.57
2022-10-28T18:05:21.423Z,10.39
2022-10-28T18:08:28.098Z,10.50
2022-10-28T18:11:36.749Z,10.33
2022-10-28T18:14:45.442Z,10.36
2022-10-28T18:17:52.769Z,10.29
2022-10-28T18:20:59.539Z,10.12
2022-10-28T18:24:08.476Z,10.05
2022-10-28T18:27:14.586Z,9.95
2022-10-28T18:30:29.829Z,9.89
2022-10-28T18:33:37.525Z,9.93
2022-10-28T18:36:43.392Z,9.93
2022-10-28T18:39:49.554Z,9.93
2022-10-28T18:42:55.363Z,9.85
2022-10-28T18:46:06.336Z,9.79
2022-10-28T18:49:12.222Z,9.77
2022-10-28T18:52:20.655Z,9.84
2022-10-28T18:55:26.791Z,9.85
2022-10-28T18:58:32.881Z,9.84
2022-10-28T19:01:47.115Z,9.84
2022-10-28T19:04:53.194Z,9.80
2022-10-28T19:07:59.053Z,9.77
2022-10-28T19:11:06.692Z,9.70
2022-10-28T19:14:13.928Z,9.72
2022-10-28T19:17:22.306Z,9.69
2022-10-28T19:20:28.010Z,9.71
2022-10-28T19:23:34.595Z,9.68
2022-10-28T19:26:40.449Z,9.72
2022-10-28T19:29:46.340Z,9.58
2022-10-28T19:32:55.626Z,9.54
2022-10-28T19:36:20.117Z,9.57
2022-10-28T19:39:25.885Z,9.50
2022-10-28T19:42:32.071Z,9.51
2022-10-28T19:45:37.969Z,9.60
2022-10-28T19:48:51.233Z,9.66
2022-10-28T19:51:56.880Z,9.59
2022-10-28T19:55:02.525Z,9.73
2022-10-28T19:58:10.252Z,9.63
2022-10-28T20:01:17.806Z,9.65
2022-10-28T20:04:27.082Z,9.56
2022-10-28T20:07:32.705Z,9.59
2022-10-28T20:10:38.412Z,9.59
2022-10-28T20:13:45.904Z,9.65
2022-10-28T20:16:51.573Z,9.68
2022-10-28T20:19:59.808Z,9.74
2022-10-28T20:23:05.377Z,9.63
2022-10-28T20:26:13.119Z,9.66
2022-10-28T20:29:18.707Z,9.61
2022-10-28T20:32:24.766Z,9.43
2022-10-28T20:35:32.996Z,9.35
2022-10-28T20:38:41.106Z,9.51
2022-10-28T20:41:54.548Z,9.41
2022-10-28T20:45:01.597Z,9.47
2022-10-28T20:48:20.805Z,9.25
2022-10-28T20:51:37.285Z,9.23
2022-10-28T20:54:43.648Z,9.30
2022-10-28T20:57:49.425Z,9.38
2022-10-28T21:00:57.629Z,9.18
2022-10-28T21:04:07.940Z,8.99
2022-10-28T21:07:16.469Z,9.07
2022-10-28T21:10:22.415Z,9.15
2022-10-28T21:13:28.308Z,8.97
2022-10-28T21:16:34.508Z,8.94
2022-10-28T21:19:40.803Z,8.89
2022-10-28T21:22:49.338Z,8.90
2022-10-28T21:26:00.012Z,9.03
2022-10-28T21:29:06.089Z,8.94
2022-10-28T21:32:11.979Z,8.96
2022-10-28T21:35:18.305Z,8.90
2022-10-28T21:38:27.825Z,8.96
2022-10-28T21:41:33.604Z,8.91
2022-10-28T21:44:39.649Z,8.99
2022-10-28T21:47:45.478Z,9.04
2022-10-28T21:50:54.565Z,9.04
2022-10-28T21:54:16.891Z,9.09
2022-10-28T21:57:28.207Z,9.01
2022-10-28T22:00:35.701Z,8.97
2022-10-28T22:04:01.463Z,9.15
2022-10-28T22:07:07.093Z,9.03
2022-10-28T22:10:15.390Z,9.14
2022-10-28T22:13:21.012Z,9.06
2022-10-28T22:16:27.033Z,9.15
2022-10-28T22:19:32.596Z,9.06
2022-10-28T22:22:39.988Z,9.16
2022-10-28T22:25:49.164Z,9.05
2022-10-28T22:28:56.068Z,9.04
2022-10-28T22:32:01.691Z,8.92
2022-10-28T22:35:09.179Z,8.98
2022-10-28T22:38:14.818Z,9.03
2022-10-28T22:41:26.036Z,9.09
2022-10-28T22:44:37.750Z,9.05
2022-10-28T22:47:43.312Z,9.02
2022-10-28T22:50:48.861Z,9.05
2022-10-28T22:53:54.799Z,9.10
2022-10-28T22:57:03.096Z,9.23
2022-10-28T23:00:11.246Z,9.24
2022-10-28T23:03:18.216Z,9.38
2022-10-28T23:06:27.747Z,9.30
2022-10-28T23:09:33.395Z,9.29
2022-10-28T23:12:41.585Z,9.16
2022-10-28T23:15:47.104Z,9.20
2022-10-28T23:18:53.705Z,9.20
2022-10-28T23:21:59.397Z,9.19
2022-10-28T23:25:06.177Z,9.16
2022-10-28T23:28:14.449Z,9.20
2022-10-28T23:31:20.223Z,9.26
2022-10-28T23:34:27.328Z,9.07
2022-10-28T23:37:33.046Z,9.09
2022-10-28T23:40:38.711Z,9.10
2022-10-28T23:43:47.223Z,9.16
2022-10-28T23:46:52.835Z,8.92
2022-10-28T23:49:58.643Z,8.91
2022-10-28T23:53:04.493Z,8.91
2022-10-28T23:56:10.894Z,8.92
2022-10-28T23:59:19.121Z,9.04
